Eendracht — PDVN — position and weather

sailwx.info

Track history (hours):
 
Tides and Currents Weather Stations Pressure Air Temp Water Temp Dewpoint Dewpoint Depression Visibility Wind Speed Wind Dir Waves Ship Positions

Eendracht (Netherlands)

Last reported at 2014-Jul-31 15:32 UTC. Time now 2014-Jul-31 15:43 UTC.
Position N 55°28' E 008°26'.

Length 59 m; beam 12 m; draft 5 m.

Type: Sailing vessel. MMSI: 244543000.

Date/timePositionNaut miles runAvg speedWind from/ knotsBaromVisibWave heightAir tempDewpointWater temp
2014-Jul-31 15:32N 55°28' E 008°26'2 2.5
2014-Jul-31 14:33N 55°29' E 008°22'6 6.1
2014-Jul-31 13:33N 55°25' E 008°13'6 5.7
2014-Jul-31 12:33N 55°21' E 008°06'6 5.5
2014-Jul-31 11:33N 55°16' E 008°04'6 5.8
2014-Jul-31 10:33N 55°10' E 008°03'2 2.2
2014-Jul-31 09:33N 55°08' E 008°02'8 7.8
2014-Jul-31 08:34N 55°15' E 007°58'7 7.1
2014-Jul-31 07:33N 55°21' E 007°50'7 7.3
2014-Jul-31 06:33N 55°26' E 007°41'6 6.4
2014-Jul-31 05:33N 55°22' E 007°32'5 5.0
2014-Jul-31 04:33N 55°20' E 007°24'6 6.2
2014-Jul-31 03:33N 55°22' E 007°14'7 6.9
2014-Jul-31 02:33N 55°24' E 007°03'7 6.6
2014-Jul-31 01:33N 55°26' E 006°52'7 6.7
2014-Jul-31 00:33N 55°29' E 006°41'7 6.9
2014-Jul-30 23:31N 55°31' E 006°29'176 6.5
2014-Jul-29 20:33N 58°20' E 005°06'39 5.6
2014-Jul-29 13:33N 58°58' E 004°46'7 6.8
2014-Jul-29 12:32N 59°05' E 004°45'5 4.9
2014-Jul-29 11:33N 59°10' E 004°46'4 3.5
2014-Jul-29 10:22N 59°14' E 004°43'40 4.3
2014-Jul-29 01:00N 59°54' E 004°30'39 1.1 300 / 111014.110.8 0.519.015.920.0
2014-Jul-27 14:33N 60°31' E 004°58'7 6.1
2014-Jul-27 13:21N 60°25' E 005°06'4 4.8
2014-Jul-27 12:33N 60°24' E 005°13'3 3.0
2014-Jul-27 11:34N 60°24' E 005°19'0 0.0
2014-Jul-27 10:33N 60°24' E 005°19'0 0.0
2014-Jul-27 09:31N 60°24' E 005°19'0 0.0
2014-Jul-27 08:31N 60°24' E 005°19'0 0.0
2014-Jul-27 07:31N 60°24' E 005°19'0 0.0
2014-Jul-27 06:31N 60°24' E 005°19'0 0.0
2014-Jul-27 05:31N 60°24' E 005°19'0 0.0
2014-Jul-27 04:31N 60°24' E 005°19'0 0.0
2014-Jul-27 03:31N 60°24' E 005°19'0 0.0
2014-Jul-27 02:30N 60°24' E 005°19'0 0.0
2014-Jul-27 01:30N 60°24' E 005°19'0 0.0
2014-Jul-27 00:30N 60°24' E 005°19'0 0.0
2014-Jul-26 23:30N 60°24' E 005°19'0 0.0
2014-Jul-26 22:30N 60°24' E 005°19'0 0.0
2014-Jul-26 21:24N 60°24' E 005°19'0 0.0
2014-Jul-26 20:30N 60°24' E 005°19'0 0.0
2014-Jul-26 19:30N 60°24' E 005°19'0 0.0
2014-Jul-26 18:30N 60°24' E 005°19'0 0.0
2014-Jul-26 17:30N 60°24' E 005°19'0 0.0
2014-Jul-26 16:27N 60°24' E 005°19'0 0.0
2014-Jul-26 15:33N 60°24' E 005°19'0 0.0
2014-Jul-26 14:33N 60°24' E 005°19'0 0.0
2014-Jul-26 13:33N 60°24' E 005°19'0 0.0
2014-Jul-26 12:33N 60°24' E 005°19'0 0.0
2014-Jul-26 11:27N 60°24' E 005°19'0 0.0
2014-Jul-26 10:33N 60°24' E 005°19'0 0.0
2014-Jul-26 09:33N 60°24' E 005°19'0 0.0
2014-Jul-26 08:33N 60°24' E 005°19'0 0.0
2014-Jul-26 07:33N 60°24' E 005°19'0 0.0
2014-Jul-26 06:33N 60°24' E 005°19'0 0.0
2014-Jul-26 05:33N 60°24' E 005°19'0 0.0
2014-Jul-26 04:33N 60°24' E 005°19'0 0.0
2014-Jul-26 03:33N 60°24' E 005°19'0 0.0
2014-Jul-26 02:33N 60°24' E 005°19'0 0.0
2014-Jul-26 01:33N 60°24' E 005°19'0 0.0
2014-Jul-26 00:33N 60°24' E 005°19'0 0.0
2014-Jul-25 23:33N 60°24' E 005°19'0 0.0
2014-Jul-25 22:33N 60°24' E 005°19'0 0.0
2014-Jul-25 21:33N 60°24' E 005°19'0 0.0
2014-Jul-25 20:33N 60°24' E 005°19'0 0.0
2014-Jul-25 19:33N 60°24' E 005°19'0 0.0
2014-Jul-25 18:33N 60°24' E 005°19'0 0.0
2014-Jul-25 17:33N 60°24' E 005°19'0 0.0
2014-Jul-25 16:33N 60°24' E 005°19'0 0.0
2014-Jul-25 15:33N 60°24' E 005°19'0 0.0
2014-Jul-25 14:33N 60°24' E 005°19'0 0.0
2014-Jul-25 13:33N 60°24' E 005°19'0 0.0
2014-Jul-25 12:33N 60°24' E 005°19'0 0.0
2014-Jul-25 11:33N 60°24' E 005°19'0 0.0
2014-Jul-25 10:33N 60°24' E 005°19'0 0.0
2014-Jul-25 09:33N 60°24' E 005°19'0 0.0
2014-Jul-25 08:33N 60°24' E 005°19'0 0.0
2014-Jul-25 07:33N 60°24' E 005°19'0 0.0
2014-Jul-25 06:32N 60°24' E 005°19'0 0.0
2014-Jul-25 05:32N 60°24' E 005°19'0 0.0
2014-Jul-25 04:32N 60°24' E 005°19'0 0.0
2014-Jul-25 03:32N 60°24' E 005°19'0 0.0
2014-Jul-25 02:32N 60°24' E 005°19'0 0.0
2014-Jul-25 01:32N 60°24' E 005°19'0 0.0
2014-Jul-25 00:32N 60°24' E 005°19'0 0.0
2014-Jul-24 23:32N 60°24' E 005°19'0 0.0
2014-Jul-24 22:32N 60°24' E 005°19'0 0.0
2014-Jul-24 21:32N 60°24' E 005°19'0 0.0
2014-Jul-24 20:32N 60°24' E 005°19'0 0.0
2014-Jul-24 19:32N 60°24' E 005°19'0 0.0
2014-Jul-24 18:32N 60°24' E 005°19'0 0.0
2014-Jul-24 17:32N 60°24' E 005°19'0 0.0
2014-Jul-24 16:32N 60°24' E 005°19'0 0.0
2014-Jul-24 15:32N 60°24' E 005°19'0 0.0
2014-Jul-24 14:32N 60°24' E 005°19'0 0.0
2014-Jul-24 13:32N 60°24' E 005°19'0 0.0
2014-Jul-24 12:32N 60°24' E 005°19'0 0.0
2014-Jul-24 11:32N 60°24' E 005°19'0 0.0
2014-Jul-24 10:32N 60°24' E 005°19'1 0.9
2014-Jul-24 09:33N 60°24' E 005°18'10 4.3
2014-Jul-24 07:22N 60°16' E 005°10'48 1.9
2014-Jul-23 06:33N 59°27' E 005°13'3 2.8
2014-Jul-23 05:31N 59°25' E 005°15'0 0.0
2014-Jul-23 04:31N 59°25' E 005°16'0 0.0
2014-Jul-23 03:31N 59°25' E 005°16'0 0.0
2014-Jul-23 02:34N 59°25' E 005°16'0 0.0
2014-Jul-23 01:33N 59°25' E 005°16'0 0.0
2014-Jul-23 00:33N 59°25' E 005°16'0 0.0
2014-Jul-22 23:33N 59°25' E 005°16'0 0.0
2014-Jul-22 22:33N 59°25' E 005°16'0 0.0
2014-Jul-22 21:33N 59°25' E 005°16'0 0.0
2014-Jul-22 20:33N 59°25' E 005°16'0 0.0
2014-Jul-22 19:33N 59°25' E 005°16'0 0.0
2014-Jul-22 18:33N 59°25' E 005°16'0 0.0
2014-Jul-22 17:33N 59°25' E 005°16'0 0.0
2014-Jul-22 16:33N 59°25' E 005°16'0 0.0
2014-Jul-22 15:33N 59°25' E 005°16'0 0.0
2014-Jul-22 14:33N 59°25' E 005°16'0 0.1
2014-Jul-22 13:34N 59°25' E 005°15'3 2.8
2014-Jul-22 12:34N 59°26' E 005°10'5 4.8
2014-Jul-22 11:34N 59°22' E 005°04'4 4.2
2014-Jul-22 10:33N 59°19' E 004°58'2 0.4
2014-Jul-22 05:30N 59°18' E 004°55'0 0.0
2014-Jul-21 23:24N 59°18' E 004°55'  
Track history (hours):
 
Tides and Currents Weather Stations Pressure Air Temp Water Temp Dewpoint Dewpoint Depression Visibility Wind Speed Wind Dir Waves Ship Positions

Eendracht (Netherlands)

Last reported at 2014-Jul-31 15:32 UTC. Time now 2014-Jul-31 15:43 UTC.
Position N 55°28' E 008°26'.

Length 59 m; beam 12 m; draft 5 m.

Type: Sailing vessel. MMSI: 244543000.

Date/timePositionNaut miles runAvg speedWind from/ knotsBaromVisibWave heightAir tempDewpointWater temp
2014-Jul-31 15:32N 55°28' E 008°26'2 2.5
2014-Jul-31 14:33N 55°29' E 008°22'6 6.1
2014-Jul-31 13:33N 55°25' E 008°13'6 5.7
2014-Jul-31 12:33N 55°21' E 008°06'6 5.5
2014-Jul-31 11:33N 55°16' E 008°04'6 5.8
2014-Jul-31 10:33N 55°10' E 008°03'2 2.2
2014-Jul-31 09:33N 55°08' E 008°02'8 7.8
2014-Jul-31 08:34N 55°15' E 007°58'7 7.1
2014-Jul-31 07:33N 55°21' E 007°50'7 7.3
2014-Jul-31 06:33N 55°26' E 007°41'6 6.4
2014-Jul-31 05:33N 55°22' E 007°32'5 5.0
2014-Jul-31 04:33N 55°20' E 007°24'6 6.2
2014-Jul-31 03:33N 55°22' E 007°14'7 6.9
2014-Jul-31 02:33N 55°24' E 007°03'7 6.6
2014-Jul-31 01:33N 55°26' E 006°52'7 6.7
2014-Jul-31 00:33N 55°29' E 006°41'7 6.9
2014-Jul-30 23:31N 55°31' E 006°29'176 6.5
2014-Jul-29 20:33N 58°20' E 005°06'39 5.6
2014-Jul-29 13:33N 58°58' E 004°46'7 6.8
2014-Jul-29 12:32N 59°05' E 004°45'5 4.9
2014-Jul-29 11:33N 59°10' E 004°46'4 3.5
2014-Jul-29 10:22N 59°14' E 004°43'40 4.3
2014-Jul-29 01:00N 59°54' E 004°30'39 1.1 300 / 111014.110.8 0.519.015.920.0
2014-Jul-27 14:33N 60°31' E 004°58'7 6.1
2014-Jul-27 13:21N 60°25' E 005°06'4 4.8
2014-Jul-27 12:33N 60°24' E 005°13'3 3.0
2014-Jul-27 11:34N 60°24' E 005°19'0 0.0
2014-Jul-27 10:33N 60°24' E 005°19'0 0.0
2014-Jul-27 09:31N 60°24' E 005°19'0 0.0
2014-Jul-27 08:31N 60°24' E 005°19'0 0.0
2014-Jul-27 07:31N 60°24' E 005°19'0 0.0
2014-Jul-27 06:31N 60°24' E 005°19'0 0.0
2014-Jul-27 05:31N 60°24' E 005°19'0 0.0
2014-Jul-27 04:31N 60°24' E 005°19'0 0.0
2014-Jul-27 03:31N 60°24' E 005°19'0 0.0
2014-Jul-27 02:30N 60°24' E 005°19'0 0.0
2014-Jul-27 01:30N 60°24' E 005°19'0 0.0
2014-Jul-27 00:30N 60°24' E 005°19'0 0.0
2014-Jul-26 23:30N 60°24' E 005°19'0 0.0
2014-Jul-26 22:30N 60°24' E 005°19'0 0.0
2014-Jul-26 21:24N 60°24' E 005°19'0 0.0
2014-Jul-26 20:30N 60°24' E 005°19'0 0.0
2014-Jul-26 19:30N 60°24' E 005°19'0 0.0
2014-Jul-26 18:30N 60°24' E 005°19'0 0.0
2014-Jul-26 17:30N 60°24' E 005°19'0 0.0
2014-Jul-26 16:27N 60°24' E 005°19'0 0.0
2014-Jul-26 15:33N 60°24' E 005°19'0 0.0
2014-Jul-26 14:33N 60°24' E 005°19'0 0.0
2014-Jul-26 13:33N 60°24' E 005°19'0 0.0
2014-Jul-26 12:33N 60°24' E 005°19'0 0.0
2014-Jul-26 11:27N 60°24' E 005°19'0 0.0
2014-Jul-26 10:33N 60°24' E 005°19'0 0.0
2014-Jul-26 09:33N 60°24' E 005°19'0 0.0
2014-Jul-26 08:33N 60°24' E 005°19'0 0.0
2014-Jul-26 07:33N 60°24' E 005°19'0 0.0
2014-Jul-26 06:33N 60°24' E 005°19'0 0.0
2014-Jul-26 05:33N 60°24' E 005°19'0 0.0
2014-Jul-26 04:33N 60°24' E 005°19'0 0.0
2014-Jul-26 03:33N 60°24' E 005°19'0 0.0
2014-Jul-26 02:33N 60°24' E 005°19'0 0.0
2014-Jul-26 01:33N 60°24' E 005°19'0 0.0
2014-Jul-26 00:33N 60°24' E 005°19'0 0.0
2014-Jul-25 23:33N 60°24' E 005°19'0 0.0
2014-Jul-25 22:33N 60°24' E 005°19'0 0.0
2014-Jul-25 21:33N 60°24' E 005°19'0 0.0
2014-Jul-25 20:33N 60°24' E 005°19'0 0.0
2014-Jul-25 19:33N 60°24' E 005°19'0 0.0
2014-Jul-25 18:33N 60°24' E 005°19'0 0.0
2014-Jul-25 17:33N 60°24' E 005°19'0 0.0
2014-Jul-25 16:33N 60°24' E 005°19'0 0.0
2014-Jul-25 15:33N 60°24' E 005°19'0 0.0
2014-Jul-25 14:33N 60°24' E 005°19'0 0.0
2014-Jul-25 13:33N 60°24' E 005°19'0 0.0
2014-Jul-25 12:33N 60°24' E 005°19'0 0.0
2014-Jul-25 11:33N 60°24' E 005°19'0 0.0
2014-Jul-25 10:33N 60°24' E 005°19'0 0.0
2014-Jul-25 09:33N 60°24' E 005°19'0 0.0
2014-Jul-25 08:33N 60°24' E 005°19'0 0.0
2014-Jul-25 07:33N 60°24' E 005°19'0 0.0
2014-Jul-25 06:32N 60°24' E 005°19'0 0.0
2014-Jul-25 05:32N 60°24' E 005°19'0 0.0
2014-Jul-25 04:32N 60°24' E 005°19'0 0.0
2014-Jul-25 03:32N 60°24' E 005°19'0 0.0
2014-Jul-25 02:32N 60°24' E 005°19'0 0.0
2014-Jul-25 01:32N 60°24' E 005°19'0 0.0
2014-Jul-25 00:32N 60°24' E 005°19'0 0.0
2014-Jul-24 23:32N 60°24' E 005°19'0 0.0
2014-Jul-24 22:32N 60°24' E 005°19'0 0.0
2014-Jul-24 21:32N 60°24' E 005°19'0 0.0
2014-Jul-24 20:32N 60°24' E 005°19'0 0.0
2014-Jul-24 19:32N 60°24' E 005°19'0 0.0
2014-Jul-24 18:32N 60°24' E 005°19'0 0.0
2014-Jul-24 17:32N 60°24' E 005°19'0 0.0
2014-Jul-24 16:32N 60°24' E 005°19'0 0.0
2014-Jul-24 15:32N 60°24' E 005°19'0 0.0
2014-Jul-24 14:32N 60°24' E 005°19'0 0.0
2014-Jul-24 13:32N 60°24' E 005°19'0 0.0
2014-Jul-24 12:32N 60°24' E 005°19'0 0.0
2014-Jul-24 11:32N 60°24' E 005°19'0 0.0
2014-Jul-24 10:32N 60°24' E 005°19'1 0.9
2014-Jul-24 09:33N 60°24' E 005°18'10 4.3
2014-Jul-24 07:22N 60°16' E 005°10'48 1.9
2014-Jul-23 06:33N 59°27' E 005°13'3 2.8
2014-Jul-23 05:31N 59°25' E 005°15'0 0.0
2014-Jul-23 04:31N 59°25' E 005°16'0 0.0
2014-Jul-23 03:31N 59°25' E 005°16'0 0.0
2014-Jul-23 02:34N 59°25' E 005°16'0 0.0
2014-Jul-23 01:33N 59°25' E 005°16'0 0.0
2014-Jul-23 00:33N 59°25' E 005°16'0 0.0
2014-Jul-22 23:33N 59°25' E 005°16'0 0.0
2014-Jul-22 22:33N 59°25' E 005°16'0 0.0
2014-Jul-22 21:33N 59°25' E 005°16'0 0.0
2014-Jul-22 20:33N 59°25' E 005°16'0 0.0
2014-Jul-22 19:33N 59°25' E 005°16'0 0.0
2014-Jul-22 18:33N 59°25' E 005°16'0 0.0
2014-Jul-22 17:33N 59°25' E 005°16'0 0.0
2014-Jul-22 16:33N 59°25' E 005°16'0 0.0
2014-Jul-22 15:33N 59°25' E 005°16'0 0.0
2014-Jul-22 14:33N 59°25' E 005°16'0 0.1
2014-Jul-22 13:34N 59°25' E 005°15'3 2.8
2014-Jul-22 12:34N 59°26' E 005°10'5 4.8
2014-Jul-22 11:34N 59°22' E 005°04'4 4.2
2014-Jul-22 10:33N 59°19' E 004°58'2 0.4
2014-Jul-22 05:30N 59°18' E 004°55'0 0.0
2014-Jul-21 23:24N 59°18' E 004°55'  

Dump ship's entire track history